Terminal Aerodrome Forecast
Issued by NWS Pocatello, ID

Home | Current Version | Previous Version | Text Only | Print | Product List | Glossary On
Versions: 1 2 3 4 5 6 7 8 9 10 11 12 13 14 15 16 17 18 19 20 21
393
FTUS45 KPIH 221838 AAA
TAFPIH
TAF AMD
KPIH 221838Z 2219/2318 VRB05KT P6SM -SHRA VCTS BKN050CB BKN180
      TEMPO 2219/2220 VRB15G30KT P6SM -TSRA OVC050CB
     FM222300 20007KT P6SM VCTS FEW040CB SCT180
     FM230500 21007KT P6SM VCSH BKN070 BKN180
     FM230900 18015KT P6SM -SHRA BKN025 OVC060=

USA.gov is the U.S. government's official web portal to all federal, state and local government web resources and services.